Time;durP1;ratioP1;P1;durP2;ratioP2;P2;SDS_P1;SDS_P2;PMS_P1;PMS_P2;Temp;Humidity;BMP_temperature;BMP_pressure;BME280_temperature;BME280_humidity;BME280_pressure;Samples;Min_cycle;Max_cycle;Signal;HPM_P1;HPM_P2
2021/03/16 00:02:03;;;;;;;4.35;1.92;;;18.10;53.30;;;;;;4989219;28;20162;-62
2021/03/16 00:04:29;;;;;;;4.55;1.50;;;18.20;53.20;;;;;;4988397;28;20566;-58
2021/03/16 00:06:54;;;;;;;2.15;1.17;;;18.20;53.10;;;;;;4989018;28;20038;-61
2021/03/16 00:09:20;;;;;;;4.13;1.60;;;18.20;53.10;;;;;;4989070;28;20030;-62
2021/03/16 00:11:45;;;;;;;2.35;1.40;;;18.20;53.00;;;;;;4990738;28;20041;-62
2021/03/16 00:14:11;;;;;;;3.53;1.63;;;18.10;52.80;;;;;;4990905;28;20088;-61
2021/03/16 00:16:36;;;;;;;4.30;1.77;;;18.20;52.90;;;;;;4988979;28;20050;-59
2021/03/16 00:19:02;;;;;;;2.17;1.45;;;18.20;53.50;;;;;;4988881;28;20667;-63
2021/03/16 00:21:28;;;;;;;3.65;1.95;;;18.20;52.90;;;;;;4988518;28;20077;-62
2021/03/16 00:23:53;;;;;;;4.32;1.92;;;18.20;52.80;;;;;;4989279;28;20096;-62
2021/03/16 00:26:19;;;;;;;4.30;1.58;;;18.20;52.70;;;;;;4987955;28;20544;-60
2021/03/16 00:28:44;;;;;;;4.75;1.60;;;18.20;52.70;;;;;;4988778;28;20488;-63
2021/03/16 00:31:10;;;;;;;2.97;1.67;;;18.20;52.60;;;;;;4988477;28;20504;-59
2021/03/16 00:33:35;;;;;;;2.63;1.50;;;18.20;52.70;;;;;;4988959;28;20066;-63
2021/03/16 00:36:01;;;;;;;3.15;1.40;;;18.20;52.60;;;;;;4989589;28;20092;-64
2021/03/16 00:38:27;;;;;;;2.13;1.27;;;18.20;52.50;;;;;;4988300;28;20516;-62
2021/03/16 00:40:52;;;;;;;3.53;1.50;;;18.20;52.50;;;;;;4988729;28;20135;-62
2021/03/16 00:43:18;;;;;;;4.47;2.13;;;18.20;52.50;;;;;;4987236;28;20039;-56
2021/03/16 00:45:43;;;;;;;3.97;1.50;;;18.20;52.50;;;;;;4988426;28;20041;-61
2021/03/16 00:48:14;;;;;;;3.00;1.27;;;18.10;52.30;;;;;;5002679;28;20173;-60
2021/03/16 00:50:40;;;;;;;5.47;1.67;;;18.20;52.30;;;;;;4988383;28;20046;-64
2021/03/16 00:53:05;;;;;;;1.92;1.20;;;18.20;52.30;;;;;;4988199;28;20194;-59
2021/03/16 00:55:31;;;;;;;4.57;2.28;;;18.10;52.20;;;;;;4989460;28;20046;-58
2021/03/16 00:57:56;;;;;;;2.20;1.30;;;18.10;52.20;;;;;;4989646;28;20093;-64
2021/03/16 01:00:22;;;;;;;2.35;1.10;;;18.20;52.20;;;;;;4989973;28;20455;-62
2021/03/16 01:02:47;;;;;;;2.88;1.13;;;18.20;52.20;;;;;;4989310;28;20035;-61
2021/03/16 01:05:13;;;;;;;1.73;1.05;;;18.10;52.10;;;;;;4989396;28;20038;-61
2021/03/16 01:07:39;;;;;;;2.53;1.27;;;18.10;52.00;;;;;;4988330;28;20045;-62
2021/03/16 01:10:11;;;;;;;1.63;0.90;;;18.10;52.10;;;;;;4989359;28;20089;-60
2021/03/16 01:12:36;;;;;;;2.45;1.17;;;18.10;52.00;;;;;;4988923;28;20040;-63
2021/03/16 01:15:02;;;;;;;1.58;1.17;;;18.10;52.00;;;;;;4989039;28;20041;-62
2021/03/16 01:17:27;;;;;;;2.75;1.20;;;18.10;51.90;;;;;;4987953;28;20060;-60
2021/03/16 01:19:53;;;;;;;3.67;0.90;;;18.10;51.90;;;;;;4988296;28;20041;-59
2021/03/16 01:22:18;;;;;;;2.58;0.98;;;18.10;51.90;;;;;;4988131;28;20034;-62
2021/03/16 01:24:44;;;;;;;1.50;1.10;;;18.10;51.90;;;;;;4988267;28;20049;-60
2021/03/16 01:27:09;;;;;;;1.60;0.90;;;18.10;51.80;;;;;;4988139;28;20056;-59
2021/03/16 01:29:35;;;;;;;1.77;0.95;;;18.10;51.80;;;;;;4989252;28;20488;-65
2021/03/16 01:32:00;;;;;;;1.40;0.95;;;18.10;51.70;;;;;;4988420;28;20101;-61
2021/03/16 01:34:26;;;;;;;2.10;0.98;;;18.10;51.70;;;;;;4987957;28;20425;-63
2021/03/16 01:36:51;;;;;;;2.42;0.98;;;18.10;51.60;;;;;;4987634;28;20462;-62
2021/03/16 01:39:17;;;;;;;2.15;1.23;;;18.10;51.60;;;;;;4987218;28;20030;-62
2021/03/16 01:41:42;;;;;;;2.55;1.23;;;18.10;51.60;;;;;;5002444;28;20034;-62
2021/03/16 01:44:08;;;;;;;2.65;1.27;;;18.10;51.60;;;;;;4987735;28;20354;-61
2021/03/16 01:46:33;;;;;;;1.83;1.10;;;18.10;51.50;;;;;;4987650;28;20034;-60
2021/03/16 01:48:59;;;;;;;2.22;1.00;;;18.10;51.50;;;;;;4987427;28;20085;-61
2021/03/16 01:51:24;;;;;;;2.15;0.88;;;18.10;51.70;;;;;;5002408;28;20219;-62
2021/03/16 01:53:50;;;;;;;1.23;0.95;;;17.90;52.20;;;;;;4986177;28;20121;-57
2021/03/16 01:56:15;;;;;;;2.25;0.95;;;17.90;52.60;;;;;;4987200;28;20038;-62
2021/03/16 01:58:42;;;;;;;2.88;1.00;;;17.90;52.70;;;;;;5002443;28;20069;-61
2021/03/16 02:01:08;;;;;;;2.13;0.82;;;17.80;52.80;;;;;;4986965;28;20492;-60
2021/03/16 02:03:33;;;;;;;1.95;1.00;;;17.90;52.90;;;;;;4987895;28;20041;-62
2021/03/16 02:06:00;;;;;;;0.98;0.52;;;17.90;53.00;;;;;;4987413;28;20084;-62
2021/03/16 02:08:46;;;;;;;1.77;0.63;;;17.90;53.00;;;;;;4985543;28;20038;-63
2021/03/16 02:11:23;;;;;;;1.33;0.85;;;17.80;53.00;;;;;;4993702;28;20030;-62
2021/03/16 02:14:03;;;;;;;2.85;0.80;;;17.80;53.00;;;;;;4987516;28;20066;-62
2021/03/16 02:17:24;;;;;;;1.70;0.90;;;17.80;53.00;;;;;;4979702;28;20036;-59
2021/03/16 02:20:01;;;;;;;1.30;0.60;;;17.80;53.00;;;;;;4927869;28;20070;-62
2021/03/16 02:22:28;;;;;;;1.67;0.88;;;17.80;52.80;;;;;;4979230;28;20054;-62
2021/03/16 02:25:05;;;;;;;2.63;0.90;;;17.80;52.80;;;;;;4989891;28;20488;-61
2021/03/16 02:27:59;;;;;;;1.45;1.17;;;17.80;52.80;;;;;;4984425;28;20122;-61
2021/03/16 02:30:25;;;;;;;2.00;0.90;;;17.80;52.80;;;;;;4966534;28;20126;-60
2021/03/16 02:32:50;;;;;;;2.05;1.02;;;17.80;52.60;;;;;;4971215;28;20347;-62
2021/03/16 02:35:16;;;;;;;1.80;0.80;;;17.80;52.60;;;;;;4990685;28;20248;-62
2021/03/16 02:37:41;;;;;;;1.95;0.70;;;17.80;52.50;;;;;;4973036;28;20030;-63
2021/03/16 02:40:07;;;;;;;1.17;0.90;;;17.90;52.50;;;;;;4988702;28;20092;-62
2021/03/16 02:42:33;;;;;;;1.95;0.88;;;17.80;52.30;;;;;;5005496;28;20088;-63
2021/03/16 02:44:59;;;;;;;2.33;0.98;;;17.80;52.20;;;;;;4990777;28;20157;-61
2021/03/16 02:47:24;;;;;;;1.55;0.57;;;17.90;52.20;;;;;;4972791;28;20110;-60
2021/03/16 02:49:50;;;;;;;2.30;1.00;;;17.90;52.20;;;;;;5005445;28;20030;-63
2021/03/16 02:52:16;;;;;;;2.22;0.90;;;17.90;51.90;;;;;;4996041;28;20064;-61
2021/03/16 02:54:42;;;;;;;2.22;0.90;;;18.00;51.90;;;;;;4990270;28;20559;-56
2021/03/16 02:57:07;;;;;;;1.88;0.70;;;17.90;51.70;;;;;;4972766;28;20046;-59
2021/03/16 02:59:33;;;;;;;1.90;1.00;;;17.90;51.60;;;;;;4990103;28;20136;-62
2021/03/16 03:01:59;;;;;;;2.08;0.90;;;18.00;51.50;;;;;;4969589;28;20039;-61
2021/03/16 03:04:24;;;;;;;2.05;0.95;;;18.00;51.40;;;;;;4987146;28;20109;-62
2021/03/16 03:06:50;;;;;;;1.63;0.90;;;18.00;51.20;;;;;;4972487;28;20045;-62
2021/03/16 03:09:15;;;;;;;2.90;0.80;;;18.10;51.20;;;;;;4972971;28;20061;-64
2021/03/16 03:11:41;;;;;;;2.17;0.95;;;18.10;51.20;;;;;;5004672;28;20081;-61
2021/03/16 03:14:07;;;;;;;3.17;0.88;;;18.10;51.10;;;;;;5004810;28;20041;-61
2021/03/16 03:16:33;;;;;;;2.25;0.98;;;18.10;51.10;;;;;;4990004;28;20187;-61
2021/03/16 03:18:58;;;;;;;1.55;0.75;;;18.10;51.00;;;;;;4988098;28;20117;-63
2021/03/16 03:21:44;;;;;;;3.97;1.15;;;18.10;51.10;;;;;;4989800;28;20448;-62
2021/03/16 03:24:10;;;;;;;;;;;18.10;51.00;;;;;;4983261;28;20040;-61
2021/03/16 03:26:36;;;;;;;;;;;18.10;51.00;;;;;;4985097;28;19921;-62
2021/03/16 03:29:01;;;;;;;;;;;18.00;51.00;;;;;;4987470;28;19914;-59
2021/03/16 03:31:27;;;;;;;1.70;0.80;;;18.00;51.00;;;;;;4989450;28;19914;-62
2021/03/16 03:33:53;;;;;;;2.25;0.70;;;18.00;51.00;;;;;;4988234;28;20413;-62
2021/03/16 03:36:18;;;;;;;2.15;0.60;;;18.10;51.00;;;;;;4988100;28;20033;-57
2021/03/16 03:38:44;;;;;;;1.80;0.85;;;18.00;51.00;;;;;;4989738;28;20038;-61
2021/03/16 03:41:09;;;;;;;0.82;0.57;;;18.00;50.90;;;;;;4989312;28;20034;-61
2021/03/16 03:43:35;;;;;;;1.98;0.90;;;18.00;50.90;;;;;;4989399;28;20525;-62
2021/03/16 03:46:00;;;;;;;2.58;0.88;;;18.00;50.90;;;;;;4988362;28;20441;-62
2021/03/16 03:48:26;;;;;;;1.55;0.88;;;18.00;50.90;;;;;;4988253;28;20687;-62
2021/03/16 03:50:52;;;;;;;1.33;0.75;;;18.00;50.90;;;;;;4988555;28;20034;-63
2021/03/16 03:53:18;;;;;;;2.20;1.25;;;18.00;51.00;;;;;;4988332;28;20097;-61
2021/03/16 03:55:44;;;;;;;2.25;0.70;;;18.00;51.10;;;;;;4988793;28;20042;-62
2021/03/16 03:58:09;;;;;;;0.65;0.57;;;17.90;51.00;;;;;;4959580;28;20042;-63
2021/03/16 04:00:35;;;;;;;2.50;0.95;;;18.00;51.00;;;;;;4987398;28;20034;-61
2021/03/16 04:03:00;;;;;;;1.55;0.70;;;18.00;51.00;;;;;;4971554;28;20057;-63
2021/03/16 04:05:26;;;;;;;1.65;0.80;;;18.00;51.00;;;;;;4988664;28;20054;-62
2021/03/16 04:07:51;;;;;;;1.10;0.65;;;18.00;50.90;;;;;;5003758;28;20041;-62
2021/03/16 04:10:17;;;;;;;2.03;1.00;;;18.00;50.90;;;;;;5003843;28;20046;-62
2021/03/16 04:12:43;;;;;;;2.70;0.60;;;18.00;50.90;;;;;;4987201;28;20557;-62
2021/03/16 04:15:10;;;;;;;0.60;0.50;;;17.90;50.80;;;;;;4987016;28;20034;-62
2021/03/16 04:17:36;;;;;;;2.10;0.70;;;18.00;50.80;;;;;;5002723;28;20076;-62
2021/03/16 04:20:03;;;;;;;2.65;0.80;;;17.90;50.80;;;;;;5002584;28;20070;-60
2021/03/16 04:22:28;;;;;;;2.60;0.88;;;18.00;50.80;;;;;;4988546;28;20633;-61
2021/03/16 04:24:55;;;;;;;2.50;0.90;;;18.00;50.80;;;;;;4987424;28;20050;-62
2021/03/16 04:27:21;;;;;;;1.63;0.55;;;17.90;50.70;;;;;;4988102;28;20061;-61
2021/03/16 04:29:46;;;;;;;1.20;0.60;;;18.00;50.80;;;;;;4988862;28;20050;-59
2021/03/16 04:32:12;;;;;;;1.70;0.70;;;18.00;50.80;;;;;;5002574;28;20050;-60
2021/03/16 04:34:37;;;;;;;1.95;0.70;;;17.90;50.70;;;;;;4987766;28;20050;-59
2021/03/16 04:37:03;;;;;;;2.38;0.73;;;17.90;50.70;;;;;;4987477;28;20033;-59
2021/03/16 04:39:28;;;;;;;1.52;0.70;;;17.90;50.70;;;;;;4987988;28;20555;-58
2021/03/16 04:41:54;;;;;;;1.27;0.88;;;17.90;50.70;;;;;;4986526;28;20034;-62
2021/03/16 04:44:19;;;;;;;1.83;0.77;;;17.90;50.70;;;;;;4987484;28;20038;-62
2021/03/16 04:46:45;;;;;;;3.00;1.23;;;17.90;50.70;;;;;;4988068;28;20026;-62
2021/03/16 04:49:10;;;;;;;2.25;0.63;;;17.90;50.70;;;;;;4987416;28;20468;-64
2021/03/16 04:51:36;;;;;;;1.35;0.80;;;17.90;50.70;;;;;;4983739;28;20101;-63
2021/03/16 04:54:02;;;;;;;3.08;0.98;;;17.90;50.80;;;;;;4984152;28;20120;-63
2021/03/16 04:56:27;;;;;;;1.52;0.90;;;17.90;50.70;;;;;;4987644;28;20154;-63
2021/03/16 04:58:52;;;;;;;3.15;0.98;;;17.90;50.80;;;;;;4987671;28;20037;-64
2021/03/16 05:01:18;;;;;;;3.05;1.00;;;17.90;50.90;;;;;;5002754;28;20045;-64
2021/03/16 05:03:43;;;;;;;1.60;0.80;;;17.90;51.50;;;;;;4987369;28;20031;-63
2021/03/16 05:06:09;;;;;;;1.90;0.95;;;17.80;50.80;;;;;;4986917;28;20045;-64
2021/03/16 05:08:35;;;;;;;3.47;1.23;;;17.90;50.90;;;;;;4986953;28;20034;-62
2021/03/16 05:11:00;;;;;;;2.92;0.95;;;17.80;50.90;;;;;;4985937;28;20128;-59
2021/03/16 05:13:26;;;;;;;4.57;0.80;;;17.80;50.90;;;;;;4986627;28;20030;-62
2021/03/16 05:15:51;;;;;;;3.10;1.23;;;17.80;50.90;;;;;;4987166;28;20540;-64
2021/03/16 05:18:17;;;;;;;2.95;1.00;;;17.80;51.00;;;;;;4986467;28;20050;-61
2021/03/16 05:20:42;;;;;;;1.63;0.77;;;17.70;50.90;;;;;;4987019;28;20050;-59
2021/03/16 05:23:08;;;;;;;3.45;0.90;;;17.80;50.90;;;;;;4987154;28;20046;-62
2021/03/16 05:25:33;;;;;;;2.45;0.80;;;17.70;50.90;;;;;;4986795;28;20953;-64
2021/03/16 05:27:59;;;;;;;1.67;0.70;;;17.70;50.80;;;;;;4982849;28;20035;-64
2021/03/16 05:30:25;;;;;;;2.00;0.93;;;17.70;50.80;;;;;;4985967;28;20030;-61
2021/03/16 05:32:59;;;;;;;1.65;0.85;;;17.70;50.80;;;;;;4987100;28;20031;-62
2021/03/16 05:35:25;;;;;;;2.60;1.00;;;17.70;50.70;;;;;;4980432;28;20065;-65
2021/03/16 05:37:50;;;;;;;0.93;0.70;;;17.70;50.70;;;;;;4986651;28;20034;-63
2021/03/16 05:40:16;;;;;;;2.03;0.80;;;17.70;50.70;;;;;;5002305;28;20053;-63
2021/03/16 05:42:41;;;;;;;2.63;1.00;;;17.70;50.80;;;;;;4986729;28;20511;-61
2021/03/16 05:45:07;;;;;;;3.00;1.40;;;17.70;50.90;;;;;;4986782;28;20045;-65
2021/03/16 05:47:33;;;;;;;1.27;1.10;;;17.70;50.90;;;;;;4969200;28;20069;-62
2021/03/16 05:49:58;;;;;;;1.42;1.00;;;17.70;51.00;;;;;;4985795;28;20018;-64
2021/03/16 05:52:24;;;;;;;3.13;1.05;;;17.60;51.00;;;;;;4969684;28;20018;-66
2021/03/16 05:54:54;;;;;;;3.35;1.30;;;17.60;51.10;;;;;;4988039;28;20077;-65
2021/03/16 05:57:19;;;;;;;2.58;1.20;;;17.60;51.40;;;;;;4989810;28;20034;-66
2021/03/16 05:59:47;;;;;;;3.42;1.10;;;17.60;51.60;;;;;;4991801;28;20030;-62
2021/03/16 06:02:12;;;;;;;2.90;1.10;;;17.60;51.70;;;;;;4990334;28;20497;-64
2021/03/16 06:04:41;;;;;;;2.30;1.10;;;17.50;51.90;;;;;;4991417;28;20099;-60
2021/03/16 06:07:07;;;;;;;3.80;1.08;;;17.60;52.10;;;;;;4990466;28;20038;-60
2021/03/16 06:09:33;;;;;;;1.95;0.93;;;17.50;52.20;;;;;;4990920;28;20046;-61
2021/03/16 06:11:58;;;;;;;4.53;1.20;;;17.50;52.30;;;;;;5005725;28;20060;-62
2021/03/16 06:14:31;;;;;;;4.45;1.33;;;17.50;52.30;;;;;;5005558;28;20521;-64
2021/03/16 06:16:56;;;;;;;2.42;1.65;;;17.50;52.30;;;;;;4988914;28;20027;-60
2021/03/16 06:19:32;;;;;;;6.60;1.30;;;17.50;52.40;;;;;;4997029;28;20038;-63
2021/03/16 06:21:59;;;;;;;4.00;1.10;;;17.40;52.40;;;;;;4982868;28;20092;-60
2021/03/16 06:24:25;;;;;;;6.72;1.55;;;17.40;52.30;;;;;;4989269;28;20402;-62
2021/03/16 06:26:50;;;;;;;4.43;1.30;;;17.40;52.30;;;;;;4988729;28;20037;-64
2021/03/16 06:29:16;;;;;;;2.53;1.45;;;17.50;52.40;;;;;;5005623;28;20378;-59
2021/03/16 06:31:41;;;;;;;3.35;1.15;;;17.50;52.40;;;;;;4990333;28;20045;-64
2021/03/16 06:34:17;;;;;;;4.63;1.33;;;17.50;52.40;;;;;;4987954;28;20038;-61
2021/03/16 06:36:43;;;;;;;4.00;1.50;;;17.50;52.40;;;;;;4990112;28;20038;-61
2021/03/16 06:39:17;;;;;;;6.25;1.50;;;17.50;52.20;;;;;;4972190;28;20049;-61
2021/03/16 06:41:42;;;;;;;8.10;1.52;;;17.50;52.20;;;;;;4989925;28;20035;-64
2021/03/16 06:44:08;;;;;;;11.15;1.38;;;17.50;52.10;;;;;;5004894;28;20034;-62
2021/03/16 06:46:37;;;;;;;4.72;1.25;;;17.60;52.00;;;;;;4988965;28;20125;-66
2021/03/16 06:49:12;;;;;;;2.88;1.38;;;17.60;51.80;;;;;;4990298;28;20035;-65
2021/03/16 06:51:37;;;;;;;5.65;1.48;;;17.60;51.80;;;;;;4989871;28;20134;-59
2021/03/16 06:54:09;;;;;;;6.03;1.70;;;17.60;51.60;;;;;;4988534;28;20601;-60
2021/03/16 06:56:35;;;;;;;5.07;1.27;;;17.70;51.60;;;;;;4982136;28;20045;-64
2021/03/16 06:59:01;;;;;;;5.28;1.98;;;17.70;51.50;;;;;;4989269;28;20047;-63
2021/03/16 07:01:30;;;;;;;8.05;1.73;;;17.70;51.40;;;;;;4989725;28;20545;-64
2021/03/16 07:03:55;;;;;;;5.80;1.48;;;17.70;51.10;;;;;;4990065;28;20117;-64
2021/03/16 07:06:21;;;;;;;4.68;1.50;;;17.70;50.90;;;;;;4988948;28;20680;-65
2021/03/16 07:08:48;;;;;;;7.85;1.40;;;17.70;50.90;;;;;;4990347;28;20026;-63
2021/03/16 07:11:15;;;;;;;11.57;2.25;;;17.70;50.90;;;;;;4988937;28;20089;-65
2021/03/16 07:13:41;;;;;;;6.63;1.40;;;17.70;50.90;;;;;;5004511;28;20566;-65
2021/03/16 07:16:07;;;;;;;11.90;1.92;;;17.60;51.00;;;;;;5004297;28;20125;-63
2021/03/16 07:18:34;;;;;;;7.70;1.95;;;17.60;51.10;;;;;;4988020;28;20177;-61
2021/03/16 07:21:06;;;;;;;5.45;1.50;;;17.60;51.40;;;;;;4989096;28;20037;-64
2021/03/16 07:23:39;;;;;;;10.27;2.20;;;17.60;51.50;;;;;;4990681;28;20108;-59
2021/03/16 07:26:05;;;;;;;10.45;2.05;;;17.60;51.80;;;;;;4990539;28;20053;-63
2021/03/16 07:28:31;;;;;;;5.57;1.75;;;17.60;52.40;;;;;;4990983;28;20374;-60
2021/03/16 07:30:57;;;;;;;4.80;1.95;;;17.60;52.70;;;;;;4989923;28;20038;-61
2021/03/16 07:33:23;;;;;;;4.75;1.60;;;17.60;52.80;;;;;;4991196;28;20493;-63
2021/03/16 07:35:48;;;;;;;4.53;2.20;;;17.70;52.80;;;;;;4990288;28;20061;-63
2021/03/16 07:38:14;;;;;;;4.95;1.38;;;17.70;52.80;;;;;;4990690;28;20066;-61
2021/03/16 07:40:40;;;;;;;4.72;1.65;;;17.70;52.70;;;;;;5005754;28;20463;-64
2021/03/16 07:43:09;;;;;;;4.25;1.02;;;17.70;52.70;;;;;;5006075;28;20038;-62
2021/03/16 07:45:35;;;;;;;6.20;1.48;;;17.80;52.60;;;;;;4990803;28;20073;-62
2021/03/16 07:48:01;;;;;;;6.30;1.90;;;17.80;52.50;;;;;;4990686;28;20042;-62
2021/03/16 07:50:32;;;;;;;6.97;1.73;;;17.80;52.60;;;;;;4990897;28;20064;-62
2021/03/16 07:52:58;;;;;;;3.42;1.58;;;17.80;52.50;;;;;;5006036;28;20105;-63
2021/03/16 07:55:33;;;;;;;3.92;1.52;;;17.80;52.30;;;;;;5005417;28;20172;-62
2021/03/16 07:58:08;;;;;;;3.78;1.30;;;17.80;52.40;;;;;;4973221;28;20046;-61
2021/03/16 08:00:34;;;;;;;4.22;1.25;;;17.80;52.20;;;;;;4990502;28;20081;-62
2021/03/16 08:03:01;;;;;;;2.80;1.20;;;17.80;52.40;;;;;;4989958;28;20026;-62
2021/03/16 08:05:26;;;;;;;6.50;1.40;;;17.80;52.30;;;;;;5014107;28;20068;-62
2021/03/16 08:07:53;;;;;;;5.78;1.50;;;17.70;52.20;;;;;;4990063;28;20432;-60
2021/03/16 08:10:25;;;;;;;7.00;1.35;;;17.80;52.30;;;;;;4978237;28;20030;-66
2021/03/16 08:13:01;;;;;;;3.33;1.45;;;17.70;52.30;;;;;;4970789;28;20113;-65
2021/03/16 08:15:27;;;;;;;2.78;1.20;;;17.70;52.40;;;;;;4982545;28;20038;-65
2021/03/16 08:17:58;;;;;;;9.95;1.58;;;17.70;52.50;;;;;;4987350;28;20034;-64
2021/03/16 08:20:27;;;;;;;3.63;1.10;;;17.70;52.40;;;;;;4963986;28;21273;-65
2021/03/16 08:23:03;;;;;;;2.97;1.27;;;17.70;52.40;;;;;;4990602;28;20033;-64
2021/03/16 08:25:29;;;;;;;2.53;1.30;;;17.70;52.40;;;;;;4988121;28;20051;-64
2021/03/16 08:27:54;;;;;;;6.25;1.85;;;17.70;52.30;;;;;;4975671;28;20466;-65
2021/03/16 08:30:21;;;;;;;3.88;1.48;;;17.70;52.20;;;;;;4985835;28;20572;-65
2021/03/16 08:32:46;;;;;;;3.13;1.20;;;17.70;52.20;;;;;;4987817;28;20041;-66
2021/03/16 08:35:16;;;;;;;5.35;1.48;;;17.80;52.10;;;;;;4970532;28;20026;-66
2021/03/16 08:37:42;;;;;;;2.42;1.25;;;17.80;52.10;;;;;;4980155;28;20038;-63
2021/03/16 08:40:08;;;;;;;3.85;1.65;;;17.80;52.00;;;;;;4981920;28;20041;-64
2021/03/16 08:42:33;;;;;;;2.20;1.40;;;17.80;51.90;;;;;;4987285;28;20073;-61
2021/03/16 08:44:59;;;;;;;5.43;1.30;;;17.80;52.00;;;;;;4988193;28;20093;-63
2021/03/16 08:47:25;;;;;;;2.33;1.08;;;17.80;51.90;;;;;;4986623;28;20062;-60
2021/03/16 08:49:52;;;;;;;4.93;1.50;;;17.80;51.90;;;;;;4987285;28;20062;-61
2021/03/16 08:52:22;;;;;;;4.95;1.80;;;17.80;51.90;;;;;;4986302;28;20042;-62
2021/03/16 08:54:51;;;;;;;2.53;1.38;;;17.80;51.90;;;;;;4985308;28;20034;-63
2021/03/16 08:57:21;;;;;;;5.43;1.30;;;17.80;51.80;;;;;;4987007;28;20038;-62
2021/03/16 08:59:51;;;;;;;8.82;1.40;;;17.80;51.70;;;;;;4986977;28;20782;-63
2021/03/16 09:02:20;;;;;;;2.13;1.00;;;17.80;51.60;;;;;;4986997;28;20057;-62
2021/03/16 09:04:46;;;;;;;3.72;1.10;;;17.80;51.60;;;;;;4987640;28;20039;-62
2021/03/16 09:07:25;;;;;;;3.97;1.20;;;17.80;51.60;;;;;;4984795;28;20045;-62
2021/03/16 09:09:52;;;;;;;1.20;0.93;;;17.80;51.60;;;;;;4980049;28;20117;-60
2021/03/16 09:12:27;;;;;;;2.10;1.10;;;17.80;51.60;;;;;;4983777;28;20042;-63
2021/03/16 09:14:52;;;;;;;4.30;1.50;;;17.70;51.70;;;;;;4986422;28;20508;-63
2021/03/16 09:17:18;;;;;;;2.72;1.23;;;17.70;51.80;;;;;;4986205;28;20092;-58
2021/03/16 09:19:43;;;;;;;2.20;0.98;;;17.70;51.90;;;;;;4986405;28;20030;-64
2021/03/16 09:22:11;;;;;;;2.88;1.35;;;17.70;51.80;;;;;;4985278;28;20416;-63
2021/03/16 09:24:40;;;;;;;2.22;1.17;;;17.60;52.00;;;;;;4984899;28;20432;-61
2021/03/16 09:27:06;;;;;;;1.17;0.80;;;17.60;52.10;;;;;;4969363;28;20125;-61
2021/03/16 09:29:33;;;;;;;5.35;0.90;;;17.60;52.30;;;;;;4986756;28;20042;-62
2021/03/16 09:32:04;;;;;;;1.88;0.95;;;17.60;52.30;;;;;;4986158;28;20040;-61
2021/03/16 09:34:30;;;;;;;1.52;0.70;;;17.60;52.40;;;;;;4986433;28;20125;-63
2021/03/16 09:37:00;;;;;;;1.27;0.88;;;17.60;52.70;;;;;;4986480;28;20113;-64
2021/03/16 09:39:26;;;;;;;2.03;0.82;;;17.60;52.70;;;;;;4968021;28;20644;-63
2021/03/16 09:41:53;;;;;;;2.08;1.00;;;17.50;52.80;;;;;;4986316;28;20113;-61
2021/03/16 09:44:36;;;;;;;1.50;0.88;;;17.50;52.80;;;;;;4980097;28;20053;-61
2021/03/16 09:47:02;;;;;;;2.53;0.80;;;17.50;52.80;;;;;;4986395;28;20113;-63
2021/03/16 09:49:32;;;;;;;4.10;1.25;;;17.50;52.80;;;;;;4986574;28;20093;-62
2021/03/16 09:52:10;;;;;;;2.45;1.00;;;17.50;52.80;;;;;;5000789;28;20041;-60
2021/03/16 09:54:40;;;;;;;2.15;1.00;;;17.50;52.80;;;;;;4985152;28;20121;-62
2021/03/16 09:57:15;;;;;;;3.92;1.10;;;17.50;52.80;;;;;;4985811;28;20037;-63
2021/03/16 09:59:44;;;;;;;2.40;1.08;;;17.50;52.90;;;;;;4986346;28;20038;-60
2021/03/16 10:02:10;;;;;;;1.90;1.00;;;17.50;52.90;;;;;;4986085;28;20077;-63
2021/03/16 10:04:43;;;;;;;1.88;1.00;;;17.60;52.90;;;;;;4985027;28;20070;-58
2021/03/16 10:07:08;;;;;;;1.42;0.80;;;17.60;52.70;;;;;;5000052;28;20114;-64
2021/03/16 10:09:39;;;;;;;3.03;0.98;;;17.60;52.50;;;;;;4978685;28;20118;-62
2021/03/16 10:12:15;;;;;;;1.05;0.95;;;17.60;52.30;;;;;;4986703;28;20050;-59
2021/03/16 10:14:42;;;;;;;1.45;0.70;;;17.60;52.00;;;;;;5001522;28;20061;-61
2021/03/16 10:17:07;;;;;;;1.55;1.02;;;17.70;52.00;;;;;;5001094;28;20497;-65
2021/03/16 10:19:33;;;;;;;1.63;1.00;;;17.70;52.00;;;;;;4986008;28;20053;-62
2021/03/16 10:21:59;;;;;;;2.00;0.80;;;17.70;51.90;;;;;;4985118;28;20033;-62
2021/03/16 10:24:25;;;;;;;1.35;0.93;;;17.80;51.90;;;;;;4976984;28;20042;-64
2021/03/16 10:26:54;;;;;;;1.30;0.77;;;17.80;51.70;;;;;;4986496;28;20497;-60
2021/03/16 10:29:20;;;;;;;2.50;1.00;;;17.80;51.60;;;;;;4976804;28;20118;-63
2021/03/16 10:31:45;;;;;;;3.25;0.85;;;17.90;51.50;;;;;;4977148;28;20122;-60
2021/03/16 10:34:11;;;;;;;1.30;0.77;;;17.80;51.30;;;;;;4969368;28;20037;-62
2021/03/16 10:36:36;;;;;;;1.27;0.90;;;17.80;51.30;;;;;;4977137;28;20058;-61
2021/03/16 10:39:03;;;;;;;1.13;0.80;;;17.90;51.30;;;;;;4970135;28;20532;-62
2021/03/16 10:41:29;;;;;;;1.35;0.98;;;17.90;51.30;;;;;;4986286;28;20043;-62
2021/03/16 10:43:54;;;;;;;2.45;1.10;;;17.90;51.20;;;;;;4990035;28;20045;-62
2021/03/16 10:46:20;;;;;;;3.45;1.13;;;17.80;51.10;;;;;;4989681;28;20077;-61
2021/03/16 10:48:45;;;;;;;2.00;0.75;;;17.80;51.10;;;;;;4989601;28;20413;-62
2021/03/16 10:51:11;;;;;;;1.50;1.00;;;17.80;51.20;;;;;;4990235;28;20041;-62
2021/03/16 10:53:36;;;;;;;2.50;0.85;;;17.90;51.10;;;;;;4989709;28;20035;-61
2021/03/16 10:56:05;;;;;;;1.20;0.80;;;17.80;51.10;;;;;;4989246;28;20148;-61
2021/03/16 10:58:31;;;;;;;2.63;1.13;;;17.90;51.00;;;;;;4988805;28;20545;-61
2021/03/16 11:00:56;;;;;;;1.45;1.08;;;17.90;51.00;;;;;;4989374;28;20045;-64
2021/03/16 11:03:22;;;;;;;2.05;1.00;;;17.90;51.00;;;;;;4990313;28;20509;-63
2021/03/16 11:05:47;;;;;;;2.38;1.10;;;17.90;50.90;;;;;;4989987;28;20638;-60
2021/03/16 11:08:13;;;;;;;1.45;0.90;;;17.90;51.00;;;;;;5003614;28;20042;-61
2021/03/16 11:10:38;;;;;;;1.85;0.88;;;17.90;50.90;;;;;;4988222;28;20045;-61
2021/03/16 11:13:04;;;;;;;1.88;1.00;;;17.90;50.90;;;;;;4988112;28;20121;-62
2021/03/16 11:15:29;;;;;;;1.02;0.77;;;17.80;50.80;;;;;;4989140;28;20143;-61
2021/03/16 11:17:55;;;;;;;2.08;1.40;;;17.90;50.90;;;;;;4989097;28;20038;-60
2021/03/16 11:20:20;;;;;;;1.02;0.73;;;17.90;50.90;;;;;;4989112;28;20084;-61
2021/03/16 11:22:46;;;;;;;1.38;1.27;;;17.80;50.80;;;;;;4989288;28;20110;-65
2021/03/16 11:25:12;;;;;;;1.13;0.95;;;17.90;50.90;;;;;;4988982;28;20392;-64
2021/03/16 11:27:37;;;;;;;1.45;0.93;;;17.90;50.80;;;;;;4976259;28;20665;-63
2021/03/16 11:30:05;;;;;;;0.93;0.90;;;17.80;50.70;;;;;;4988923;28;20111;-62
2021/03/16 11:32:31;;;;;;;3.50;1.33;;;17.90;50.80;;;;;;4988048;28;20505;-65
2021/03/16 11:34:56;;;;;;;1.48;1.00;;;17.80;50.70;;;;;;5003552;28;20035;-64
2021/03/16 11:37:22;;;;;;;1.85;0.80;;;17.90;50.80;;;;;;4988442;28;20022;-65
2021/03/16 11:39:47;;;;;;;1.95;1.13;;;17.80;50.70;;;;;;4988690;28;20089;-65
2021/03/16 11:42:13;;;;;;;1.83;1.10;;;17.80;50.70;;;;;;4988244;28;20603;-66
2021/03/16 11:44:38;;;;;;;1.45;1.00;;;17.90;50.80;;;;;;4984446;28;20042;-65
2021/03/16 11:47:04;;;;;;;3.67;1.23;;;17.90;50.70;;;;;;4968864;28;20038;-64
2021/03/16 11:49:29;;;;;;;0.95;0.85;;;17.90;50.70;;;;;;4965013;28;20049;-64
2021/03/16 11:51:55;;;;;;;2.20;0.93;;;17.90;50.80;;;;;;5003291;28;20031;-66
2021/03/16 11:54:20;;;;;;;2.22;0.80;;;17.90;50.80;;;;;;4988319;28;20034;-66
2021/03/16 11:56:46;;;;;;;0.88;0.80;;;17.90;50.80;;;;;;4984145;28;20101;-64
2021/03/16 11:59:11;;;;;;;1.40;1.00;;;17.90;50.80;;;;;;4976871;28;20114;-66
2021/03/16 12:01:37;;;;;;;1.13;1.02;;;17.80;50.70;;;;;;4988578;28;20043;-66
2021/03/16 12:04:03;;;;;;;0.90;0.88;;;17.90;50.80;;;;;;4996944;28;20050;-65
2021/03/16 12:06:28;;;;;;;2.22;1.23;;;17.90;50.80;;;;;;4989685;28;20156;-65
2021/03/16 12:08:54;;;;;;;1.80;0.82;;;17.90;50.80;;;;;;4990170;28;20054;-65
2021/03/16 12:11:19;;;;;;;1.55;0.98;;;17.80;50.70;;;;;;4997776;28;20042;-63
2021/03/16 12:13:45;;;;;;;2.28;1.50;;;17.90;50.80;;;;;;4988523;28;20038;-64
2021/03/16 12:16:10;;;;;;;1.48;0.95;;;17.90;50.80;;;;;;4986769;28;20034;-65
2021/03/16 12:18:36;;;;;;;1.40;1.08;;;17.90;50.80;;;;;;4988502;28;20038;-60
2021/03/16 12:21:02;;;;;;;1.38;0.80;;;17.90;50.70;;;;;;4989624;28;20038;-64
2021/03/16 12:23:27;;;;;;;0.88;0.80;;;17.90;50.70;;;;;;4990348;28;20460;-63
2021/03/16 12:25:53;;;;;;;1.15;1.05;;;17.90;50.80;;;;;;4987339;28;20567;-64
2021/03/16 12:28:19;;;;;;;94.30;61.20;;;17.80;50.90;;;;;;4988761;28;20856;-63
2021/03/16 12:30:44;;;;;;;128.13;86.78;;;17.80;51.00;;;;;;4986799;28;20046;-64
2021/03/16 12:33:10;;;;;;;126.95;83.97;;;17.90;51.40;;;;;;4987758;28;20413;-65
2021/03/16 12:35:35;;;;;;;112.03;75.20;;;17.80;51.70;;;;;;4987741;28;20045;-61
2021/03/16 12:38:01;;;;;;;118.70;77.95;;;17.80;52.00;;;;;;4987823;28;20041;-59
2021/03/16 12:40:28;;;;;;;118.80;77.75;;;17.80;52.00;;;;;;4987060;28;20023;-63
2021/03/16 12:42:53;;;;;;;113.20;74.28;;;17.80;52.40;;;;;;4986374;28;20038;-63
2021/03/16 12:45:19;;;;;;;113.47;73.75;;;17.80;52.40;;;;;;4987895;28;20421;-61